sensor_id;sensor_type;location;lat;lon;timestamp;P1;durP1;ratioP1;P2;durP2;ratioP2
50225;SDS011;36113;50.742;6.432;2022-09-09T00:00:48;1.10;;;0.40;;
50225;SDS011;36113;50.742;6.432;2022-09-09T00:03:24;0.50;;;0.50;;
50225;SDS011;36113;50.742;6.432;2022-09-09T00:06:04;1.45;;;0.30;;
50225;SDS011;36113;50.742;6.432;2022-09-09T00:08:54;0.50;;;0.50;;
50225;SDS011;36113;50.742;6.432;2022-09-09T00:11:27;1.55;;;0.40;;
50225;SDS011;36113;50.742;6.432;2022-09-09T00:14:02;0.47;;;0.47;;
50225;SDS011;36113;50.742;6.432;2022-09-09T00:16:34;1.40;;;0.60;;
50225;SDS011;36113;50.742;6.432;2022-09-09T00:19:14;0.95;;;0.65;;
50225;SDS011;36113;50.742;6.432;2022-09-09T00:30:12;4.38;;;1.00;;
50225;SDS011;36113;50.742;6.432;2022-09-09T00:32:44;1.67;;;0.80;;
50225;SDS011;36113;50.742;6.432;2022-09-09T00:37:43;2.03;;;0.95;;
50225;SDS011;36113;50.742;6.432;2022-09-09T00:40:21;1.45;;;0.95;;
50225;SDS011;36113;50.742;6.432;2022-09-09T00:48:38;1.05;;;0.80;;
50225;SDS011;36113;50.742;6.432;2022-09-09T00:51:11;1.30;;;0.80;;
50225;SDS011;36113;50.742;6.432;2022-09-09T00:56:30;3.10;;;0.90;;
50225;SDS011;36113;50.742;6.432;2022-09-09T01:01:35;1.10;;;1.10;;
50225;SDS011;36113;50.742;6.432;2022-09-09T01:04:01;1.83;;;0.90;;
50225;SDS011;36113;50.742;6.432;2022-09-09T01:06:35;2.42;;;0.98;;
50225;SDS011;36113;50.742;6.432;2022-09-09T01:09:17;3.33;;;0.98;;
50225;SDS011;36113;50.742;6.432;2022-09-09T01:11:51;6.78;;;1.20;;
50225;SDS011;36113;50.742;6.432;2022-09-09T01:16:56;4.03;;;1.08;;
50225;SDS011;36113;50.742;6.432;2022-09-09T01:19:27;4.78;;;1.25;;
50225;SDS011;36113;50.742;6.432;2022-09-09T01:27:30;7.68;;;1.75;;
50225;SDS011;36113;50.742;6.432;2022-09-09T01:29:57;4.78;;;1.38;;
50225;SDS011;36113;50.742;6.432;2022-09-09T01:32:41;5.10;;;1.40;;
50225;SDS011;36113;50.742;6.432;2022-09-09T01:35:09;4.28;;;1.30;;
50225;SDS011;36113;50.742;6.432;2022-09-09T01:37:52;3.75;;;1.23;;
50225;SDS011;36113;50.742;6.432;2022-09-09T01:40:18;3.28;;;1.20;;
50225;SDS011;36113;50.742;6.432;2022-09-09T01:42:43;2.63;;;1.27;;
50225;SDS011;36113;50.742;6.432;2022-09-09T01:45:08;3.27;;;1.57;;
50225;SDS011;36113;50.742;6.432;2022-09-09T01:47:35;2.90;;;1.20;;
50225;SDS011;36113;50.742;6.432;2022-09-09T01:50:01;2.77;;;1.13;;
50225;SDS011;36113;50.742;6.432;2022-09-09T01:52:28;2.08;;;1.38;;
50225;SDS011;36113;50.742;6.432;2022-09-09T01:54:54;4.45;;;1.60;;
50225;SDS011;36113;50.742;6.432;2022-09-09T02:00:17;2.15;;;1.65;;
50225;SDS011;36113;50.742;6.432;2022-09-09T02:02:44;3.35;;;1.45;;
50225;SDS011;36113;50.742;6.432;2022-09-09T02:07:58;4.50;;;1.45;;
50225;SDS011;36113;50.742;6.432;2022-09-09T02:10:33;3.35;;;1.73;;
50225;SDS011;36113;50.742;6.432;2022-09-09T02:13:12;7.93;;;1.40;;
50225;SDS011;36113;50.742;6.432;2022-09-09T02:15:47;4.57;;;1.60;;
50225;SDS011;36113;50.742;6.432;2022-09-09T02:18:16;3.90;;;1.65;;
50225;SDS011;36113;50.742;6.432;2022-09-09T02:20:49;3.03;;;1.10;;
50225;SDS011;36113;50.742;6.432;2022-09-09T02:23:16;8.10;;;1.92;;
50225;SDS011;36113;50.742;6.432;2022-09-09T02:25:42;6.35;;;1.67;;
50225;SDS011;36113;50.742;6.432;2022-09-09T02:30:36;4.80;;;1.40;;
50225;SDS011;36113;50.742;6.432;2022-09-09T02:33:05;6.00;;;1.42;;
50225;SDS011;36113;50.742;6.432;2022-09-09T02:35:35;2.60;;;1.23;;
50225;SDS011;36113;50.742;6.432;2022-09-09T02:38:05;4.85;;;1.52;;
50225;SDS011;36113;50.742;6.432;2022-09-09T02:40:35;2.60;;;1.40;;
50225;SDS011;36113;50.742;6.432;2022-09-09T02:43:00;5.13;;;1.80;;
50225;SDS011;36113;50.742;6.432;2022-09-09T02:45:28;6.20;;;1.50;;
50225;SDS011;36113;50.742;6.432;2022-09-09T02:50:49;4.10;;;1.50;;
50225;SDS011;36113;50.742;6.432;2022-09-09T02:53:17;7.22;;;1.55;;
50225;SDS011;36113;50.742;6.432;2022-09-09T02:58:46;8.57;;;1.27;;
50225;SDS011;36113;50.742;6.432;2022-09-09T03:01:12;5.18;;;1.55;;
50225;SDS011;36113;50.742;6.432;2022-09-09T03:03:37;2.47;;;1.50;;
50225;SDS011;36113;50.742;6.432;2022-09-09T03:06:03;3.97;;;1.38;;
50225;SDS011;36113;50.742;6.432;2022-09-09T03:08:30;4.10;;;1.45;;
50225;SDS011;36113;50.742;6.432;2022-09-09T03:10:57;3.60;;;1.27;;
50225;SDS011;36113;50.742;6.432;2022-09-09T03:13:23;5.38;;;1.42;;
50225;SDS011;36113;50.742;6.432;2022-09-09T03:15:50;2.85;;;1.75;;
50225;SDS011;36113;50.742;6.432;2022-09-09T03:18:16;9.70;;;1.65;;
50225;SDS011;36113;50.742;6.432;2022-09-09T03:20:41;2.47;;;1.47;;
50225;SDS011;36113;50.742;6.432;2022-09-09T03:23:07;4.85;;;1.65;;
50225;SDS011;36113;50.742;6.432;2022-09-09T03:25:33;2.35;;;1.17;;
50225;SDS011;36113;50.742;6.432;2022-09-09T03:27:58;2.22;;;1.38;;
50225;SDS011;36113;50.742;6.432;2022-09-09T03:30:24;6.97;;;1.90;;
50225;SDS011;36113;50.742;6.432;2022-09-09T03:32:51;4.13;;;1.67;;
50225;SDS011;36113;50.742;6.432;2022-09-09T03:35:17;7.70;;;1.52;;
50225;SDS011;36113;50.742;6.432;2022-09-09T03:37:43;3.37;;;1.23;;
50225;SDS011;36113;50.742;6.432;2022-09-09T03:40:08;3.80;;;1.40;;
50225;SDS011;36113;50.742;6.432;2022-09-09T03:42:37;5.28;;;1.75;;
50225;SDS011;36113;50.742;6.432;2022-09-09T03:45:04;6.95;;;1.67;;
50225;SDS011;36113;50.742;6.432;2022-09-09T03:47:30;2.20;;;1.23;;
50225;SDS011;36113;50.742;6.432;2022-09-09T03:49:55;4.55;;;1.95;;
50225;SDS011;36113;50.742;6.432;2022-09-09T03:52:21;6.70;;;1.77;;
50225;SDS011;36113;50.742;6.432;2022-09-09T03:54:49;5.25;;;1.77;;
50225;SDS011;36113;50.742;6.432;2022-09-09T03:57:16;3.17;;;1.58;;
50225;SDS011;36113;50.742;6.432;2022-09-09T03:59:42;4.00;;;1.60;;
50225;SDS011;36113;50.742;6.432;2022-09-09T04:02:07;3.67;;;1.37;;
50225;SDS011;36113;50.742;6.432;2022-09-09T04:04:34;3.50;;;1.57;;
50225;SDS011;36113;50.742;6.432;2022-09-09T04:06:59;3.83;;;1.20;;
50225;SDS011;36113;50.742;6.432;2022-09-09T04:09:24;6.13;;;1.33;;
50225;SDS011;36113;50.742;6.432;2022-09-09T04:11:50;6.93;;;1.40;;
50225;SDS011;36113;50.742;6.432;2022-09-09T04:14:15;5.30;;;1.40;;
50225;SDS011;36113;50.742;6.432;2022-09-09T04:16:40;3.37;;;1.33;;
50225;SDS011;36113;50.742;6.432;2022-09-09T04:19:09;3.72;;;1.60;;
50225;SDS011;36113;50.742;6.432;2022-09-09T04:21:37;2.85;;;1.30;;
50225;SDS011;36113;50.742;6.432;2022-09-09T04:24:05;3.92;;;1.50;;
50225;SDS011;36113;50.742;6.432;2022-09-09T04:26:30;4.17;;;1.27;;
50225;SDS011;36113;50.742;6.432;2022-09-09T04:28:56;3.50;;;1.30;;
50225;SDS011;36113;50.742;6.432;2022-09-09T04:31:21;1.88;;;1.10;;
50225;SDS011;36113;50.742;6.432;2022-09-09T04:36:16;6.13;;;1.42;;
50225;SDS011;36113;50.742;6.432;2022-09-09T04:38:43;5.47;;;2.13;;
50225;SDS011;36113;50.742;6.432;2022-09-09T04:41:09;5.80;;;1.25;;
50225;SDS011;36113;50.742;6.432;2022-09-09T04:43:36;3.38;;;1.67;;
50225;SDS011;36113;50.742;6.432;2022-09-09T04:46:02;2.57;;;1.40;;
50225;SDS011;36113;50.742;6.432;2022-09-09T04:48:27;3.35;;;1.30;;
50225;SDS011;36113;50.742;6.432;2022-09-09T04:51:03;7.80;;;1.92;;
50225;SDS011;36113;50.742;6.432;2022-09-09T04:53:30;5.63;;;1.58;;
50225;SDS011;36113;50.742;6.432;2022-09-09T04:56:03;5.35;;;1.40;;
50225;SDS011;36113;50.742;6.432;2022-09-09T04:58:30;2.88;;;1.50;;
50225;SDS011;36113;50.742;6.432;2022-09-09T05:01:02;3.08;;;1.20;;
50225;SDS011;36113;50.742;6.432;2022-09-09T05:03:31;2.55;;;1.20;;
50225;SDS011;36113;50.742;6.432;2022-09-09T05:06:10;4.05;;;1.60;;
50225;SDS011;36113;50.742;6.432;2022-09-09T05:08:37;2.65;;;1.30;;
50225;SDS011;36113;50.742;6.432;2022-09-09T05:11:04;1.90;;;0.93;;
50225;SDS011;36113;50.742;6.432;2022-09-09T05:13:38;4.85;;;1.58;;
50225;SDS011;36113;50.742;6.432;2022-09-09T05:16:03;2.30;;;1.50;;
50225;SDS011;36113;50.742;6.432;2022-09-09T05:18:29;5.37;;;1.10;;
50225;SDS011;36113;50.742;6.432;2022-09-09T05:20:58;3.00;;;1.40;;
50225;SDS011;36113;50.742;6.432;2022-09-09T05:23:24;5.47;;;0.93;;
50225;SDS011;36113;50.742;6.432;2022-09-09T05:25:58;1.70;;;1.15;;
50225;SDS011;36113;50.742;6.432;2022-09-09T05:28:26;5.45;;;1.38;;
50225;SDS011;36113;50.742;6.432;2022-09-09T05:31:10;3.33;;;1.20;;
50225;SDS011;36113;50.742;6.432;2022-09-09T05:33:38;4.20;;;1.40;;
50225;SDS011;36113;50.742;6.432;2022-09-09T05:36:09;2.53;;;1.00;;
50225;SDS011;36113;50.742;6.432;2022-09-09T05:38:38;3.78;;;1.23;;
50225;SDS011;36113;50.742;6.432;2022-09-09T05:41:04;3.47;;;1.27;;
50225;SDS011;36113;50.742;6.432;2022-09-09T05:43:29;3.63;;;1.20;;
50225;SDS011;36113;50.742;6.432;2022-09-09T05:46:29;2.95;;;1.13;;
50225;SDS011;36113;50.742;6.432;2022-09-09T05:48:49;3.97;;;1.17;;
50225;SDS011;36113;50.742;6.432;2022-09-09T05:51:17;1.63;;;1.20;;
50225;SDS011;36113;50.742;6.432;2022-09-09T05:53:45;2.80;;;0.90;;
50225;SDS011;36113;50.742;6.432;2022-09-09T05:56:12;8.67;;;1.43;;
50225;SDS011;36113;50.742;6.432;2022-09-09T05:58:40;2.15;;;1.27;;
50225;SDS011;36113;50.742;6.432;2022-09-09T06:01:13;4.18;;;1.30;;
50225;SDS011;36113;50.742;6.432;2022-09-09T06:03:41;4.13;;;1.02;;
50225;SDS011;36113;50.742;6.432;2022-09-09T06:06:08;2.42;;;1.20;;
50225;SDS011;36113;50.742;6.432;2022-09-09T06:08:36;2.80;;;1.00;;
50225;SDS011;36113;50.742;6.432;2022-09-09T06:11:04;2.50;;;1.00;;
50225;SDS011;36113;50.742;6.432;2022-09-09T06:13:37;4.18;;;1.30;;
50225;SDS011;36113;50.742;6.432;2022-09-09T06:16:05;4.10;;;1.05;;
50225;SDS011;36113;50.742;6.432;2022-09-09T06:18:33;4.18;;;1.00;;
50225;SDS011;36113;50.742;6.432;2022-09-09T06:20:59;2.07;;;1.33;;
50225;SDS011;36113;50.742;6.432;2022-09-09T06:23:26;1.75;;;1.20;;
50225;SDS011;36113;50.742;6.432;2022-09-09T06:26:05;3.97;;;0.93;;
50225;SDS011;36113;50.742;6.432;2022-09-09T06:28:34;2.28;;;1.30;;
50225;SDS011;36113;50.742;6.432;2022-09-09T06:31:02;5.65;;;1.30;;
50225;SDS011;36113;50.742;6.432;2022-09-09T06:33:33;3.47;;;1.05;;
50225;SDS011;36113;50.742;6.432;2022-09-09T06:36:05;4.00;;;1.27;;
50225;SDS011;36113;50.742;6.432;2022-09-09T06:38:30;5.77;;;1.80;;
50225;SDS011;36113;50.742;6.432;2022-09-09T06:40:59;4.20;;;1.53;;
50225;SDS011;36113;50.742;6.432;2022-09-09T06:43:25;3.90;;;1.27;;
50225;SDS011;36113;50.742;6.432;2022-09-09T06:48:20;9.00;;;1.65;;
50225;SDS011;36113;50.742;6.432;2022-09-09T06:50:46;1.93;;;1.03;;
50225;SDS011;36113;50.742;6.432;2022-09-09T06:53:11;4.77;;;1.77;;
50225;SDS011;36113;50.742;6.432;2022-09-09T06:55:36;5.83;;;1.60;;
50225;SDS011;36113;50.742;6.432;2022-09-09T06:58:02;4.50;;;1.40;;
50225;SDS011;36113;50.742;6.432;2022-09-09T07:00:27;5.00;;;1.23;;
50225;SDS011;36113;50.742;6.432;2022-09-09T07:02:53;9.00;;;1.73;;
50225;SDS011;36113;50.742;6.432;2022-09-09T07:05:18;6.63;;;1.40;;
50225;SDS011;36113;50.742;6.432;2022-09-09T07:07:44;5.40;;;1.50;;
50225;SDS011;36113;50.742;6.432;2022-09-09T07:10:09;4.10;;;1.90;;
50225;SDS011;36113;50.742;6.432;2022-09-09T07:12:35;3.50;;;1.53;;
50225;SDS011;36113;50.742;6.432;2022-09-09T07:15:00;2.03;;;0.97;;
50225;SDS011;36113;50.742;6.432;2022-09-09T07:17:26;9.73;;;1.33;;
50225;SDS011;36113;50.742;6.432;2022-09-09T07:19:53;5.43;;;1.40;;
50225;SDS011;36113;50.742;6.432;2022-09-09T07:22:18;4.83;;;1.50;;
50225;SDS011;36113;50.742;6.432;2022-09-09T07:24:44;3.50;;;1.17;;
50225;SDS011;36113;50.742;6.432;2022-09-09T07:27:10;9.93;;;1.67;;
50225;SDS011;36113;50.742;6.432;2022-09-09T07:29:35;6.17;;;1.63;;
50225;SDS011;36113;50.742;6.432;2022-09-09T07:32:00;4.80;;;1.53;;
50225;SDS011;36113;50.742;6.432;2022-09-09T07:34:27;4.15;;;1.45;;
50225;SDS011;36113;50.742;6.432;2022-09-09T07:36:52;4.63;;;1.30;;
50225;SDS011;36113;50.742;6.432;2022-09-09T07:39:18;1.87;;;1.60;;
50225;SDS011;36113;50.742;6.432;2022-09-09T07:41:44;3.73;;;1.37;;
50225;SDS011;36113;50.742;6.432;2022-09-09T07:44:16;3.67;;;1.42;;
50225;SDS011;36113;50.742;6.432;2022-09-09T07:46:43;1.98;;;1.10;;
50225;SDS011;36113;50.742;6.432;2022-09-09T07:49:10;4.72;;;1.33;;
50225;SDS011;36113;50.742;6.432;2022-09-09T07:51:37;8.05;;;1.50;;
50225;SDS011;36113;50.742;6.432;2022-09-09T07:54:05;2.95;;;1.17;;
50225;SDS011;36113;50.742;6.432;2022-09-09T07:56:34;4.60;;;1.52;;
50225;SDS011;36113;50.742;6.432;2022-09-09T07:59:00;3.47;;;1.30;;
50225;SDS011;36113;50.742;6.432;2022-09-09T08:01:27;4.30;;;1.40;;
50225;SDS011;36113;50.742;6.432;2022-09-09T08:03:58;1.63;;;0.85;;
50225;SDS011;36113;50.742;6.432;2022-09-09T08:06:29;5.93;;;1.10;;
50225;SDS011;36113;50.742;6.432;2022-09-09T08:09:02;6.70;;;1.33;;
50225;SDS011;36113;50.742;6.432;2022-09-09T08:11:28;2.45;;;1.00;;
50225;SDS011;36113;50.742;6.432;2022-09-09T08:13:54;4.28;;;1.13;;
50225;SDS011;36113;50.742;6.432;2022-09-09T08:16:24;3.60;;;1.20;;
50225;SDS011;36113;50.742;6.432;2022-09-09T08:18:51;2.47;;;0.90;;
50225;SDS011;36113;50.742;6.432;2022-09-09T08:21:19;1.88;;;0.60;;
50225;SDS011;36113;50.742;6.432;2022-09-09T08:23:47;5.32;;;1.30;;
50225;SDS011;36113;50.742;6.432;2022-09-09T08:26:14;3.95;;;1.15;;
50225;SDS011;36113;50.742;6.432;2022-09-09T08:28:41;3.67;;;0.75;;
50225;SDS011;36113;50.742;6.432;2022-09-09T08:33:34;2.13;;;0.75;;
50225;SDS011;36113;50.742;6.432;2022-09-09T08:36:02;2.75;;;0.70;;
50225;SDS011;36113;50.742;6.432;2022-09-09T08:38:27;1.30;;;1.00;;
50225;SDS011;36113;50.742;6.432;2022-09-09T08:40:53;7.60;;;1.27;;
50225;SDS011;36113;50.742;6.432;2022-09-09T08:43:37;3.22;;;1.23;;
50225;SDS011;36113;50.742;6.432;2022-09-09T08:48:42;3.22;;;1.10;;
50225;SDS011;36113;50.742;6.432;2022-09-09T08:51:17;3.25;;;1.00;;
50225;SDS011;36113;50.742;6.432;2022-09-09T08:53:44;2.28;;;0.90;;
50225;SDS011;36113;50.742;6.432;2022-09-09T08:56:14;2.15;;;0.80;;
50225;SDS011;36113;50.742;6.432;2022-09-09T08:58:45;8.05;;;1.27;;
50225;SDS011;36113;50.742;6.432;2022-09-09T09:07:08;3.67;;;0.85;;
50225;SDS011;36113;50.742;6.432;2022-09-09T09:12:58;4.68;;;1.00;;
50225;SDS011;36113;50.742;6.432;2022-09-09T09:15:27;2.72;;;0.90;;
50225;SDS011;36113;50.742;6.432;2022-09-09T09:17:56;3.40;;;0.93;;
50225;SDS011;36113;50.742;6.432;2022-09-09T09:20:28;1.87;;;1.13;;
50225;SDS011;36113;50.742;6.432;2022-09-09T09:23:06;2.42;;;0.80;;
50225;SDS011;36113;50.742;6.432;2022-09-09T09:25:41;4.90;;;0.80;;
50225;SDS011;36113;50.742;6.432;2022-09-09T09:28:17;2.03;;;0.73;;
50225;SDS011;36113;50.742;6.432;2022-09-09T09:30:56;3.55;;;1.17;;
50225;SDS011;36113;50.742;6.432;2022-09-09T09:36:42;1.83;;;0.80;;
50225;SDS011;36113;50.742;6.432;2022-09-09T09:39:21;1.42;;;0.70;;
50225;SDS011;36113;50.742;6.432;2022-09-09T09:42:11;1.83;;;1.10;;
50225;SDS011;36113;50.742;6.432;2022-09-09T09:44:39;0.80;;;0.80;;
50225;SDS011;36113;50.742;6.432;2022-09-09T09:47:13;2.45;;;0.60;;
50225;SDS011;36113;50.742;6.432;2022-09-09T09:52:17;1.83;;;0.75;;
50225;SDS011;36113;50.742;6.432;2022-09-09T09:54:49;1.75;;;0.80;;
50225;SDS011;36113;50.742;6.432;2022-09-09T09:57:15;3.20;;;0.90;;
50225;SDS011;36113;50.742;6.432;2022-09-09T09:59:42;2.83;;;1.00;;
50225;SDS011;36113;50.742;6.432;2022-09-09T10:02:18;2.80;;;0.70;;
50225;SDS011;36113;50.742;6.432;2022-09-09T10:04:46;2.70;;;0.70;;
50225;SDS011;36113;50.742;6.432;2022-09-09T10:07:21;1.85;;;0.70;;
50225;SDS011;36113;50.742;6.432;2022-09-09T10:09:54;1.42;;;0.60;;
50225;SDS011;36113;50.742;6.432;2022-09-09T10:17:40;2.17;;;0.95;;
50225;SDS011;36113;50.742;6.432;2022-09-09T10:22:50;6.13;;;1.23;;
50225;SDS011;36113;50.742;6.432;2022-09-09T10:25:20;3.33;;;0.95;;
50225;SDS011;36113;50.742;6.432;2022-09-09T10:28:06;1.67;;;0.68;;
50225;SDS011;36113;50.742;6.432;2022-09-09T10:33:17;3.17;;;0.75;;
50225;SDS011;36113;50.742;6.432;2022-09-09T10:36:00;4.72;;;0.90;;
50225;SDS011;36113;50.742;6.432;2022-09-09T10:38:45;1.88;;;0.82;;
50225;SDS011;36113;50.742;6.432;2022-09-09T10:43:58;1.38;;;0.77;;
50225;SDS011;36113;50.742;6.432;2022-09-09T10:55:17;2.85;;;1.25;;
50225;SDS011;36113;50.742;6.432;2022-09-09T10:57:50;1.65;;;0.75;;
50225;SDS011;36113;50.742;6.432;2022-09-09T11:00:24;5.32;;;1.30;;
50225;SDS011;36113;50.742;6.432;2022-09-09T11:03:15;2.10;;;0.75;;
50225;SDS011;36113;50.742;6.432;2022-09-09T11:05:47;4.28;;;1.20;;
50225;SDS011;36113;50.742;6.432;2022-09-09T11:08:21;2.00;;;0.88;;
50225;SDS011;36113;50.742;6.432;2022-09-09T11:16:19;2.22;;;0.70;;
50225;SDS011;36113;50.742;6.432;2022-09-09T11:18:50;2.80;;;1.00;;
50225;SDS011;36113;50.742;6.432;2022-09-09T11:21:22;2.83;;;1.17;;
50225;SDS011;36113;50.742;6.432;2022-09-09T11:23:54;1.35;;;0.90;;
50225;SDS011;36113;50.742;6.432;2022-09-09T11:26:29;5.43;;;0.90;;
50225;SDS011;36113;50.742;6.432;2022-09-09T11:29:47;2.03;;;0.70;;
50225;SDS011;36113;50.742;6.432;2022-09-09T11:40:00;2.65;;;0.75;;
50225;SDS011;36113;50.742;6.432;2022-09-09T11:42:31;1.63;;;0.70;;
50225;SDS011;36113;50.742;6.432;2022-09-09T11:44:56;4.43;;;1.27;;
50225;SDS011;36113;50.742;6.432;2022-09-09T11:47:29;1.20;;;0.83;;
50225;SDS011;36113;50.742;6.432;2022-09-09T11:52:41;0.60;;;0.60;;
50225;SDS011;36113;50.742;6.432;2022-09-09T11:58:03;0.73;;;0.40;;
50225;SDS011;36113;50.742;6.432;2022-09-09T12:00:42;2.42;;;0.70;;
50225;SDS011;36113;50.742;6.432;2022-09-09T12:06:12;1.10;;;0.70;;
50225;SDS011;36113;50.742;6.432;2022-09-09T12:08:43;5.55;;;1.00;;
50225;SDS011;36113;50.742;6.432;2022-09-09T12:11:11;2.20;;;0.77;;
50225;SDS011;36113;50.742;6.432;2022-09-09T12:13:37;0.93;;;0.60;;
50225;SDS011;36113;50.742;6.432;2022-09-09T12:16:03;4.03;;;0.83;;
50225;SDS011;36113;50.742;6.432;2022-09-09T12:23:58;1.73;;;0.70;;
50225;SDS011;36113;50.742;6.432;2022-09-09T12:26:36;0.63;;;0.60;;
50225;SDS011;36113;50.742;6.432;2022-09-09T12:29:14;1.17;;;0.50;;
50225;SDS011;36113;50.742;6.432;2022-09-09T12:31:46;2.25;;;0.98;;
50225;SDS011;36113;50.742;6.432;2022-09-09T12:37:38;1.85;;;0.88;;
50225;SDS011;36113;50.742;6.432;2022-09-09T12:48:03;3.17;;;0.82;;
50225;SDS011;36113;50.742;6.432;2022-09-09T12:50:33;1.50;;;0.60;;
50225;SDS011;36113;50.742;6.432;2022-09-09T12:53:36;1.77;;;0.63;;
50225;SDS011;36113;50.742;6.432;2022-09-09T12:58:32;1.50;;;0.50;;
50225;SDS011;36113;50.742;6.432;2022-09-09T13:00:58;0.50;;;0.50;;
50225;SDS011;36113;50.742;6.432;2022-09-09T13:03:24;0.85;;;0.50;;
50225;SDS011;36113;50.742;6.432;2022-09-09T13:05:51;2.30;;;0.77;;
50225;SDS011;36113;50.742;6.432;2022-09-09T13:08:17;3.67;;;0.88;;
50225;SDS011;36113;50.742;6.432;2022-09-09T13:13:29;1.08;;;0.75;;
50225;SDS011;36113;50.742;6.432;2022-09-09T13:15:59;0.73;;;0.50;;
50225;SDS011;36113;50.742;6.432;2022-09-09T13:18:27;2.42;;;0.80;;
50225;SDS011;36113;50.742;6.432;2022-09-09T13:20:54;0.90;;;0.52;;
50225;SDS011;36113;50.742;6.432;2022-09-09T13:23:23;1.63;;;0.50;;
50225;SDS011;36113;50.742;6.432;2022-09-09T13:26:01;0.77;;;0.60;;
50225;SDS011;36113;50.742;6.432;2022-09-09T13:28:29;3.30;;;0.70;;
50225;SDS011;36113;50.742;6.432;2022-09-09T13:30:59;1.27;;;0.75;;
50225;SDS011;36113;50.742;6.432;2022-09-09T13:33:36;2.78;;;0.65;;
50225;SDS011;36113;50.742;6.432;2022-09-09T13:36:03;8.35;;;1.10;;
50225;SDS011;36113;50.742;6.432;2022-09-09T13:40:57;5.22;;;1.80;;
50225;SDS011;36113;50.742;6.432;2022-09-09T13:43:26;5.18;;;1.02;;
50225;SDS011;36113;50.742;6.432;2022-09-09T13:45:53;2.63;;;1.10;;
50225;SDS011;36113;50.742;6.432;2022-09-09T13:48:23;3.67;;;1.20;;
50225;SDS011;36113;50.742;6.432;2022-09-09T13:51:02;4.78;;;1.30;;
50225;SDS011;36113;50.742;6.432;2022-09-09T13:53:32;5.85;;;1.77;;
50225;SDS011;36113;50.742;6.432;2022-09-09T13:55:58;5.60;;;1.40;;
50225;SDS011;36113;50.742;6.432;2022-09-09T13:58:24;4.28;;;1.20;;
50225;SDS011;36113;50.742;6.432;2022-09-09T14:00:50;1.63;;;0.80;;
50225;SDS011;36113;50.742;6.432;2022-09-09T14:03:17;2.05;;;0.60;;
50225;SDS011;36113;50.742;6.432;2022-09-09T14:05:43;2.77;;;0.73;;
50225;SDS011;36113;50.742;6.432;2022-09-09T14:08:10;1.58;;;0.88;;
50225;SDS011;36113;50.742;6.432;2022-09-09T14:10:41;2.22;;;1.10;;
50225;SDS011;36113;50.742;6.432;2022-09-09T14:13:06;4.53;;;1.00;;
50225;SDS011;36113;50.742;6.432;2022-09-09T14:15:33;3.42;;;1.02;;
50225;SDS011;36113;50.742;6.432;2022-09-09T14:17:58;1.73;;;1.20;;
50225;SDS011;36113;50.742;6.432;2022-09-09T14:20:24;2.80;;;0.90;;
50225;SDS011;36113;50.742;6.432;2022-09-09T14:22:49;2.47;;;0.77;;
50225;SDS011;36113;50.742;6.432;2022-09-09T14:25:14;2.70;;;0.80;;
50225;SDS011;36113;50.742;6.432;2022-09-09T14:27:40;1.70;;;0.87;;
50225;SDS011;36113;50.742;6.432;2022-09-09T14:30:05;2.47;;;1.00;;
50225;SDS011;36113;50.742;6.432;2022-09-09T14:32:32;1.45;;;0.73;;
50225;SDS011;36113;50.742;6.432;2022-09-09T14:34:58;1.93;;;0.90;;
50225;SDS011;36113;50.742;6.432;2022-09-09T14:37:23;5.70;;;1.30;;
50225;SDS011;36113;50.742;6.432;2022-09-09T14:39:49;1.53;;;1.10;;
50225;SDS011;36113;50.742;6.432;2022-09-09T14:42:15;7.45;;;1.25;;
50225;SDS011;36113;50.742;6.432;2022-09-09T14:44:41;3.33;;;0.90;;
50225;SDS011;36113;50.742;6.432;2022-09-09T14:47:06;2.27;;;0.97;;
50225;SDS011;36113;50.742;6.432;2022-09-09T14:49:34;5.38;;;0.93;;
50225;SDS011;36113;50.742;6.432;2022-09-09T14:52:00;2.63;;;0.50;;
50225;SDS011;36113;50.742;6.432;2022-09-09T14:54:25;1.53;;;0.90;;
50225;SDS011;36113;50.742;6.432;2022-09-09T14:56:51;5.00;;;1.27;;
50225;SDS011;36113;50.742;6.432;2022-09-09T14:59:16;3.00;;;1.13;;
50225;SDS011;36113;50.742;6.432;2022-09-09T15:01:41;2.30;;;1.00;;
50225;SDS011;36113;50.742;6.432;2022-09-09T15:04:07;2.70;;;1.33;;
50225;SDS011;36113;50.742;6.432;2022-09-09T15:06:33;5.63;;;1.33;;
50225;SDS011;36113;50.742;6.432;2022-09-09T15:09:01;1.55;;;0.98;;
50225;SDS011;36113;50.742;6.432;2022-09-09T15:11:28;3.40;;;1.20;;
50225;SDS011;36113;50.742;6.432;2022-09-09T15:13:59;1.33;;;0.77;;
50225;SDS011;36113;50.742;6.432;2022-09-09T15:16:25;3.40;;;0.80;;
50225;SDS011;36113;50.742;6.432;2022-09-09T15:18:54;2.38;;;0.60;;
50225;SDS011;36113;50.742;6.432;2022-09-09T15:21:22;3.53;;;1.58;;
50225;SDS011;36113;50.742;6.432;2022-09-09T15:23:49;3.17;;;1.02;;
50225;SDS011;36113;50.742;6.432;2022-09-09T15:26:16;1.98;;;0.95;;
50225;SDS011;36113;50.742;6.432;2022-09-09T15:28:42;2.33;;;1.10;;
50225;SDS011;36113;50.742;6.432;2022-09-09T15:31:12;2.60;;;1.02;;
50225;SDS011;36113;50.742;6.432;2022-09-09T15:33:39;0.80;;;0.75;;
50225;SDS011;36113;50.742;6.432;2022-09-09T15:36:19;3.67;;;1.10;;
50225;SDS011;36113;50.742;6.432;2022-09-09T15:38:44;0.90;;;0.90;;
50225;SDS011;36113;50.742;6.432;2022-09-09T15:41:10;1.63;;;1.10;;
50225;SDS011;36113;50.742;6.432;2022-09-09T15:43:37;3.17;;;1.13;;
50225;SDS011;36113;50.742;6.432;2022-09-09T15:46:09;2.47;;;1.27;;
50225;SDS011;36113;50.742;6.432;2022-09-09T15:48:47;2.88;;;0.90;;
50225;SDS011;36113;50.742;6.432;2022-09-09T15:51:13;5.88;;;1.00;;
50225;SDS011;36113;50.742;6.432;2022-09-09T15:53:39;1.40;;;0.90;;
50225;SDS011;36113;50.742;6.432;2022-09-09T15:56:05;4.60;;;1.00;;
50225;SDS011;36113;50.742;6.432;2022-09-09T15:58:31;2.05;;;0.68;;
50225;SDS011;36113;50.742;6.432;2022-09-09T16:01:07;3.58;;;1.05;;
50225;SDS011;36113;50.742;6.432;2022-09-09T16:03:34;4.70;;;0.80;;
50225;SDS011;36113;50.742;6.432;2022-09-09T16:06:00;1.90;;;0.70;;
50225;SDS011;36113;50.742;6.432;2022-09-09T16:08:31;2.20;;;0.73;;
50225;SDS011;36113;50.742;6.432;2022-09-09T16:11:03;0.90;;;0.73;;
50225;SDS011;36113;50.742;6.432;2022-09-09T16:13:40;1.83;;;0.57;;
50225;SDS011;36113;50.742;6.432;2022-09-09T16:18:33;1.63;;;0.73;;
50225;SDS011;36113;50.742;6.432;2022-09-09T16:21:00;0.60;;;0.60;;
50225;SDS011;36113;50.742;6.432;2022-09-09T16:23:25;0.93;;;0.67;;
50225;SDS011;36113;50.742;6.432;2022-09-09T16:25:54;0.63;;;0.60;;
50225;SDS011;36113;50.742;6.432;2022-09-09T16:28:20;1.80;;;0.80;;
50225;SDS011;36113;50.742;6.432;2022-09-09T16:30:46;1.60;;;0.80;;
50225;SDS011;36113;50.742;6.432;2022-09-09T16:33:11;2.30;;;0.60;;
50225;SDS011;36113;50.742;6.432;2022-09-09T16:35:39;2.65;;;0.43;;
50225;SDS011;36113;50.742;6.432;2022-09-09T16:38:05;1.63;;;0.60;;
50225;SDS011;36113;50.742;6.432;2022-09-09T16:42:59;0.90;;;0.50;;
50225;SDS011;36113;50.742;6.432;2022-09-09T16:45:24;0.60;;;0.60;;
50225;SDS011;36113;50.742;6.432;2022-09-09T16:47:50;1.13;;;0.70;;
50225;SDS011;36113;50.742;6.432;2022-09-09T16:50:15;1.50;;;0.93;;
50225;SDS011;36113;50.742;6.432;2022-09-09T16:52:40;1.60;;;0.93;;
50225;SDS011;36113;50.742;6.432;2022-09-09T16:55:06;0.80;;;0.60;;
50225;SDS011;36113;50.742;6.432;2022-09-09T16:57:31;1.80;;;1.00;;
50225;SDS011;36113;50.742;6.432;2022-09-09T16:59:56;1.47;;;0.77;;
50225;SDS011;36113;50.742;6.432;2022-09-09T17:02:24;0.75;;;0.70;;
50225;SDS011;36113;50.742;6.432;2022-09-09T17:04:49;0.70;;;0.70;;
50225;SDS011;36113;50.742;6.432;2022-09-09T17:07:15;1.03;;;0.77;;
50225;SDS011;36113;50.742;6.432;2022-09-09T17:09:41;2.13;;;0.93;;
50225;SDS011;36113;50.742;6.432;2022-09-09T17:12:07;1.70;;;0.80;;
50225;SDS011;36113;50.742;6.432;2022-09-09T17:14:33;1.40;;;1.30;;
50225;SDS011;36113;50.742;6.432;2022-09-09T17:16:59;2.03;;;0.83;;
50225;SDS011;36113;50.742;6.432;2022-09-09T17:19:25;1.83;;;1.10;;
50225;SDS011;36113;50.742;6.432;2022-09-09T17:21:51;5.63;;;1.07;;